VLG16P DAOO-LEIB
Flight info
| Callsign | VLG16P |
|---|---|
| Flight time | 0h 45m |
| Altitude | 34000 |
| Route | SID74 BAHRI UA34 HAMRA N608 MITOS N851 RUXET |
| Aircraft | A20N/M-SDE2E3FGHIRWXY/LB1 |
Departure
| Time | 2026-04-26 16:26 |
|---|---|
| Airport | Oran Es-Sénia (Ahmed Ben Bella) International Airport (DAOO) |
Arrival
| Time | 2026-04-26 17:12 |
|---|---|
| Airport | Ibiza Airport (LEIB) |
| Time | Latitude | Longitude | Altitude | Speed | Heading |
|---|---|---|---|---|---|
| 2026-04-26 16:01 | 35.61836 | -0.61230 | 312 ft | 0 kts | 121° |
| 2026-04-26 16:13 | 35.61840 | -0.61237 | 313 ft | 2 kts | 120° |
| 2026-04-26 16:14 | 35.61848 | -0.61254 | 313 ft | 2 kts | 121° |
| 2026-04-26 16:14 | 35.61857 | -0.61272 | 311 ft | 2 kts | 122° |
| 2026-04-26 16:14 | 35.61876 | -0.61305 | 311 ft | 2 kts | 137° |
| 2026-04-26 16:15 | 35.61889 | -0.61309 | 313 ft | 1 kts | 207° |
| 2026-04-26 16:15 | 35.61892 | -0.61308 | 311 ft | 0 kts | 209° |
| 2026-04-26 16:19 | 35.61827 | -0.61350 | 311 ft | 11 kts | 205° |
| 2026-04-26 16:20 | 35.61815 | -0.61342 | 311 ft | 1 kts | 76° |
| 2026-04-26 16:20 | 35.61952 | -0.61350 | 312 ft | 20 kts | 336° |
| 2026-04-26 16:20 | 35.62020 | -0.61455 | 313 ft | 17 kts | 251° |
| 2026-04-26 16:21 | 35.61976 | -0.61584 | 313 ft | 16 kts | 248° |
| 2026-04-26 16:21 | 35.61922 | -0.61742 | 313 ft | 22 kts | 247° |
| 2026-04-26 16:21 | 35.61865 | -0.61911 | 313 ft | 21 kts | 247° |
| 2026-04-26 16:21 | 35.61809 | -0.62073 | 312 ft | 20 kts | 248° |
| 2026-04-26 16:22 | 35.61755 | -0.62234 | 311 ft | 20 kts | 247° |
| 2026-04-26 16:22 | 35.61701 | -0.62391 | 313 ft | 20 kts | 247° |
| 2026-04-26 16:22 | 35.61647 | -0.62548 | 313 ft | 20 kts | 247° |
| 2026-04-26 16:22 | 35.61594 | -0.62704 | 312 ft | 20 kts | 247° |
| 2026-04-26 16:23 | 35.61541 | -0.62858 | 313 ft | 20 kts | 247° |
| 2026-04-26 16:23 | 35.61488 | -0.63013 | 312 ft | 20 kts | 247° |
| 2026-04-26 16:23 | 35.61437 | -0.63163 | 311 ft | 19 kts | 247° |
| 2026-04-26 16:23 | 35.61396 | -0.63307 | 311 ft | 16 kts | 278° |
| 2026-04-26 16:24 | 35.61441 | -0.63424 | 313 ft | 15 kts | 313° |
| 2026-04-26 16:24 | 35.61530 | -0.63486 | 313 ft | 15 kts | 346° |
| 2026-04-26 16:24 | 35.61620 | -0.63529 | 314 ft | 13 kts | 337° |
| 2026-04-26 16:24 | 35.61708 | -0.63574 | 312 ft | 14 kts | 337° |
| 2026-04-26 16:25 | 35.61797 | -0.63627 | 313 ft | 14 kts | 332° |
| 2026-04-26 16:25 | 35.61844 | -0.63648 | 314 ft | 3 kts | 19° |
| 2026-04-26 16:25 | 35.61864 | -0.63622 | 314 ft | 5 kts | 58° |
| 2026-04-26 16:25 | 35.61884 | -0.63568 | 314 ft | 18 kts | 66° |
| 2026-04-26 16:26 | 35.62026 | -0.63148 | 312 ft | 86 kts | 67° |
| 2026-04-26 16:26 | 35.62220 | -0.62583 | 313 ft | 125 kts | 67° |
| 2026-04-26 16:26 | 35.62752 | -0.60956 | 417 ft | 172 kts | 64° |
| 2026-04-26 16:26 | 35.63197 | -0.59591 | 968 ft | 169 kts | 66° |
| 2026-04-26 16:27 | 35.63661 | -0.58306 | 1733 ft | 164 kts | 63° |
| 2026-04-26 16:27 | 35.64166 | -0.56921 | 2103 ft | 190 kts | 66° |
| 2026-04-26 16:27 | 35.64736 | -0.55328 | 2388 ft | 223 kts | 61° |
| 2026-04-26 16:27 | 35.65867 | -0.53881 | 2858 ft | 247 kts | 38° |
| 2026-04-26 16:28 | 35.67368 | -0.52765 | 3596 ft | 258 kts | 29° |
| 2026-04-26 16:28 | 35.69045 | -0.51858 | 4334 ft | 267 kts | 24° |
| 2026-04-26 16:28 | 35.70812 | -0.51026 | 5106 ft | 276 kts | 22° |
| 2026-04-26 16:28 | 35.72647 | -0.50220 | 5906 ft | 282 kts | 20° |
| 2026-04-26 16:29 | 35.74520 | -0.49425 | 6753 ft | 286 kts | 20° |
| 2026-04-26 16:29 | 35.76410 | -0.48636 | 7689 ft | 286 kts | 19° |
| 2026-04-26 16:29 | 35.78307 | -0.47850 | 8608 ft | 290 kts | 18° |
| 2026-04-26 16:29 | 35.80210 | -0.47063 | 9521 ft | 292 kts | 18° |
| 2026-04-26 16:30 | 35.82147 | -0.46264 | 10389 ft | 297 kts | 18° |
| 2026-04-26 16:30 | 35.84175 | -0.45427 | 10797 ft | 319 kts | 17° |
| 2026-04-26 16:30 | 35.86357 | -0.44528 | 11133 ft | 341 kts | 17° |
| 2026-04-26 16:30 | 35.87874 | -0.43903 | 11468 ft | 351 kts | 18° |
| 2026-04-26 16:31 | 35.90228 | -0.42931 | 12104 ft | 362 kts | 17° |
| 2026-04-26 16:31 | 35.92633 | -0.41936 | 12871 ft | 368 kts | 18° |
| 2026-04-26 16:31 | 35.95070 | -0.40927 | 13712 ft | 371 kts | 18° |
| 2026-04-26 16:31 | 35.97541 | -0.39904 | 14421 ft | 376 kts | 17° |
| 2026-04-26 16:32 | 36.00035 | -0.38871 | 15189 ft | 379 kts | 17° |
| 2026-04-26 16:32 | 36.02556 | -0.37826 | 15911 ft | 383 kts | 17° |
| 2026-04-26 16:32 | 36.05097 | -0.36772 | 16656 ft | 386 kts | 17° |
| 2026-04-26 16:32 | 36.07667 | -0.35706 | 17397 ft | 390 kts | 17° |
| 2026-04-26 16:33 | 36.10248 | -0.34634 | 18113 ft | 393 kts | 17° |
| 2026-04-26 16:33 | 36.12825 | -0.33563 | 18747 ft | 397 kts | 17° |
| 2026-04-26 16:33 | 36.15452 | -0.32471 | 19375 ft | 400 kts | 16° |
| 2026-04-26 16:33 | 36.18097 | -0.31370 | 19986 ft | 403 kts | 16° |
| 2026-04-26 16:34 | 36.20761 | -0.30261 | 20599 ft | 405 kts | 16° |
| 2026-04-26 16:34 | 36.23450 | -0.29140 | 21204 ft | 408 kts | 16° |
| 2026-04-26 16:34 | 36.26151 | -0.28014 | 21836 ft | 410 kts | 16° |
| 2026-04-26 16:34 | 36.28859 | -0.26883 | 22461 ft | 412 kts | 16° |
| 2026-04-26 16:35 | 36.31596 | -0.25741 | 23053 ft | 415 kts | 16° |
| 2026-04-26 16:35 | 36.34345 | -0.24592 | 23636 ft | 418 kts | 16° |
| 2026-04-26 16:35 | 36.37111 | -0.23435 | 24102 ft | 421 kts | 16° |
| 2026-04-26 16:35 | 36.39894 | -0.22270 | 24560 ft | 424 kts | 16° |
| 2026-04-26 16:36 | 36.42704 | -0.21093 | 25031 ft | 426 kts | 15° |
| 2026-04-26 16:36 | 36.45532 | -0.19907 | 25487 ft | 429 kts | 15° |
| 2026-04-26 16:36 | 36.48368 | -0.18717 | 25932 ft | 431 kts | 15° |
| 2026-04-26 16:36 | 36.51224 | -0.17518 | 26411 ft | 433 kts | 15° |
| 2026-04-26 16:37 | 36.54047 | -0.16331 | 26926 ft | 433 kts | 15° |
| 2026-04-26 16:37 | 36.56915 | -0.15125 | 27369 ft | 435 kts | 15° |
| 2026-04-26 16:37 | 36.59795 | -0.13913 | 27780 ft | 438 kts | 15° |
| 2026-04-26 16:37 | 36.62692 | -0.12693 | 28169 ft | 441 kts | 15° |
| 2026-04-26 16:38 | 36.65599 | -0.11468 | 28557 ft | 443 kts | 15° |
| 2026-04-26 16:38 | 36.68534 | -0.10230 | 28939 ft | 445 kts | 15° |
| 2026-04-26 16:38 | 36.71476 | -0.08988 | 29322 ft | 448 kts | 15° |
| 2026-04-26 16:38 | 36.74433 | -0.07738 | 29730 ft | 449 kts | 15° |
| 2026-04-26 16:39 | 36.77387 | -0.06488 | 30279 ft | 446 kts | 17° |
| 2026-04-26 16:39 | 36.80277 | -0.05264 | 30722 ft | 445 kts | 17° |
| 2026-04-26 16:39 | 36.83214 | -0.04019 | 31127 ft | 444 kts | 16° |
| 2026-04-26 16:39 | 36.86186 | -0.02948 | 31506 ft | 442 kts | 9° |
| 2026-04-26 16:40 | 36.89217 | -0.02424 | 31882 ft | 439 kts | 1° |
| 2026-04-26 16:40 | 36.92260 | -0.02245 | 32259 ft | 437 kts | 359° |
| 2026-04-26 16:40 | 36.95304 | -0.02184 | 32647 ft | 436 kts | 358° |
| 2026-04-26 16:40 | 36.98335 | -0.02181 | 33020 ft | 435 kts | 358° |
| 2026-04-26 16:41 | 37.01365 | -0.02198 | 33379 ft | 435 kts | 358° |
| 2026-04-26 16:41 | 37.04389 | -0.02213 | 33719 ft | 435 kts | 359° |
| 2026-04-26 16:41 | 37.07416 | -0.02219 | 34023 ft | 435 kts | 359° |
| 2026-04-26 16:41 | 37.10449 | -0.02215 | 34074 ft | 436 kts | 359° |
| 2026-04-26 16:42 | 37.16511 | -0.02186 | 34082 ft | 435 kts | 359° |
| 2026-04-26 16:42 | 37.22556 | -0.02147 | 34082 ft | 435 kts | 359° |
| 2026-04-26 16:43 | 37.28608 | -0.02108 | 34090 ft | 435 kts | 1° |
| 2026-04-26 16:43 | 37.34669 | -0.02070 | 34089 ft | 436 kts | 1° |
| 2026-04-26 16:44 | 37.40742 | -0.02032 | 34090 ft | 436 kts | 1° |
| 2026-04-26 16:44 | 37.46810 | -0.01995 | 34095 ft | 436 kts | 1° |
| 2026-04-26 16:45 | 37.52886 | -0.01958 | 34098 ft | 438 kts | 2° |
| 2026-04-26 16:45 | 37.58994 | -0.01919 | 34097 ft | 440 kts | 2° |
| 2026-04-26 16:46 | 37.65115 | -0.01881 | 34099 ft | 440 kts | 2° |
| 2026-04-26 16:46 | 37.71200 | -0.01841 | 34099 ft | 440 kts | 3° |
| 2026-04-26 16:47 | 37.77195 | -0.00746 | 34098 ft | 434 kts | 20° |
| 2026-04-26 16:47 | 37.82817 | 0.01994 | 34099 ft | 432 kts | 26° |
| 2026-04-26 16:48 | 37.88266 | 0.05194 | 33765 ft | 429 kts | 28° |
| 2026-04-26 16:48 | 37.90962 | 0.06823 | 33114 ft | 429 kts | 28° |
| 2026-04-26 16:48 | 37.93661 | 0.08449 | 32421 ft | 430 kts | 28° |
| 2026-04-26 16:49 | 37.96376 | 0.10074 | 31677 ft | 433 kts | 27° |
| 2026-04-26 16:49 | 37.99116 | 0.11703 | 30880 ft | 437 kts | 27° |
| 2026-04-26 16:49 | 38.01887 | 0.13340 | 30123 ft | 440 kts | 27° |
| 2026-04-26 16:49 | 38.04668 | 0.14979 | 29258 ft | 443 kts | 27° |
| 2026-04-26 16:50 | 38.07470 | 0.16628 | 28480 ft | 444 kts | 27° |
| 2026-04-26 16:50 | 38.10266 | 0.18272 | 27834 ft | 442 kts | 27° |
| 2026-04-26 16:50 | 38.13058 | 0.19917 | 27180 ft | 440 kts | 26° |
| 2026-04-26 16:50 | 38.15828 | 0.21551 | 26498 ft | 440 kts | 27° |
| 2026-04-26 16:51 | 38.18602 | 0.23189 | 25843 ft | 439 kts | 27° |
| 2026-04-26 16:51 | 38.21376 | 0.24830 | 25182 ft | 438 kts | 27° |
| 2026-04-26 16:51 | 38.24136 | 0.26464 | 24548 ft | 437 kts | 26° |
| 2026-04-26 16:51 | 38.26890 | 0.28096 | 23926 ft | 435 kts | 27° |
| 2026-04-26 16:52 | 38.29632 | 0.29722 | 23239 ft | 434 kts | 27° |
| 2026-04-26 16:52 | 38.31439 | 0.30795 | 22733 ft | 433 kts | 26° |
| 2026-04-26 16:52 | 38.35086 | 0.32961 | 21729 ft | 431 kts | 26° |
| 2026-04-26 16:52 | 38.37790 | 0.34568 | 20986 ft | 424 kts | 27° |
| 2026-04-26 16:53 | 38.40431 | 0.36138 | 20269 ft | 413 kts | 27° |
| 2026-04-26 16:53 | 38.42972 | 0.37649 | 19580 ft | 403 kts | 27° |
| 2026-04-26 16:53 | 38.45477 | 0.39141 | 18894 ft | 394 kts | 26° |
| 2026-04-26 16:53 | 38.47953 | 0.40618 | 18196 ft | 387 kts | 26° |
| 2026-04-26 16:54 | 38.50378 | 0.42067 | 17430 ft | 382 kts | 26° |
| 2026-04-26 16:54 | 38.52795 | 0.43512 | 16696 ft | 383 kts | 26° |
| 2026-04-26 16:54 | 38.55205 | 0.44954 | 15972 ft | 383 kts | 26° |
| 2026-04-26 16:54 | 38.57601 | 0.46450 | 15399 ft | 380 kts | 31° |
| 2026-04-26 16:55 | 38.59697 | 0.48392 | 15150 ft | 367 kts | 44° |
| 2026-04-26 16:55 | 38.61300 | 0.50887 | 15110 ft | 363 kts | 60° |
| 2026-04-26 16:55 | 38.62449 | 0.53757 | 15117 ft | 364 kts | 66° |
| 2026-04-26 16:55 | 38.63454 | 0.56726 | 15113 ft | 364 kts | 68° |
| 2026-04-26 16:56 | 38.65329 | 0.62732 | 15087 ft | 358 kts | 73° |
| 2026-04-26 16:56 | 38.65979 | 0.65735 | 14902 ft | 344 kts | 76° |
| 2026-04-26 16:56 | 38.66535 | 0.68661 | 14713 ft | 332 kts | 77° |
| 2026-04-26 16:57 | 38.67046 | 0.71489 | 14532 ft | 321 kts | 77° |
| 2026-04-26 16:57 | 38.67532 | 0.74234 | 14361 ft | 311 kts | 78° |
| 2026-04-26 16:57 | 38.68452 | 0.79523 | 13715 ft | 301 kts | 78° |
| 2026-04-26 16:58 | 38.68904 | 0.82149 | 13222 ft | 302 kts | 78° |
| 2026-04-26 16:58 | 38.69202 | 0.83882 | 12924 ft | 302 kts | 78° |
| 2026-04-26 16:58 | 38.70241 | 0.89950 | 11990 ft | 296 kts | 78° |
| 2026-04-26 16:59 | 38.70685 | 0.92547 | 11304 ft | 301 kts | 78° |
| 2026-04-26 16:59 | 38.70987 | 0.97792 | 10178 ft | 292 kts | 105° |
| 2026-04-26 17:00 | 38.69651 | 1.02486 | 9553 ft | 272 kts | 111° |
| 2026-04-26 17:00 | 38.68259 | 1.06944 | 8945 ft | 268 kts | 111° |
| 2026-04-26 17:00 | 38.67570 | 1.09153 | 8641 ft | 266 kts | 110° |
| 2026-04-26 17:01 | 38.67252 | 1.11458 | 8312 ft | 265 kts | 86° |
| 2026-04-26 17:01 | 38.67808 | 1.13691 | 7898 ft | 266 kts | 58° |
| 2026-04-26 17:01 | 38.69099 | 1.15357 | 7463 ft | 265 kts | 37° |
| 2026-04-26 17:01 | 38.70649 | 1.16612 | 6994 ft | 263 kts | 32° |
| 2026-04-26 17:02 | 38.72246 | 1.17806 | 6330 ft | 268 kts | 32° |
| 2026-04-26 17:02 | 38.73884 | 1.19006 | 5631 ft | 273 kts | 31° |
| 2026-04-26 17:02 | 38.75535 | 1.20209 | 4947 ft | 275 kts | 31° |
| 2026-04-26 17:02 | 38.77206 | 1.21434 | 4253 ft | 277 kts | 31° |
| 2026-04-26 17:03 | 38.78846 | 1.22625 | 3825 ft | 269 kts | 31° |
| 2026-04-26 17:03 | 38.80449 | 1.23789 | 3561 ft | 255 kts | 31° |
| 2026-04-26 17:03 | 38.81990 | 1.24793 | 3297 ft | 245 kts | 19° |
| 2026-04-26 17:03 | 38.83643 | 1.24870 | 3057 ft | 240 kts | 346° |
| 2026-04-26 17:04 | 38.85104 | 1.23920 | 2965 ft | 227 kts | 324° |
| 2026-04-26 17:04 | 38.86075 | 1.22407 | 2994 ft | 226 kts | 292° |
| 2026-04-26 17:04 | 38.86262 | 1.20454 | 2977 ft | 220 kts | 258° |
| 2026-04-26 17:04 | 38.85773 | 1.18605 | 3006 ft | 217 kts | 243° |
| 2026-04-26 17:05 | 38.85120 | 1.16853 | 3010 ft | 217 kts | 242° |
| 2026-04-26 17:05 | 38.84448 | 1.15114 | 2982 ft | 219 kts | 242° |
| 2026-04-26 17:05 | 38.83769 | 1.13364 | 2992 ft | 219 kts | 242° |
| 2026-04-26 17:05 | 38.83053 | 1.11645 | 2975 ft | 217 kts | 232° |
| 2026-04-26 17:06 | 38.81907 | 1.10494 | 2971 ft | 207 kts | 197° |
| 2026-04-26 17:06 | 38.80536 | 1.10406 | 2781 ft | 196 kts | 160° |
| 2026-04-26 17:06 | 38.79432 | 1.11355 | 2582 ft | 193 kts | 125° |
| 2026-04-26 17:06 | 38.78931 | 1.12935 | 2393 ft | 192 kts | 101° |
| 2026-04-26 17:07 | 38.78727 | 1.14584 | 2175 ft | 182 kts | 97° |
| 2026-04-26 17:07 | 38.78742 | 1.16163 | 2015 ft | 176 kts | 78° |
| 2026-04-26 17:07 | 38.79155 | 1.17642 | 1984 ft | 178 kts | 65° |
| 2026-04-26 17:07 | 38.79716 | 1.19030 | 1965 ft | 169 kts | 63° |
| 2026-04-26 17:08 | 38.80261 | 1.20333 | 1984 ft | 164 kts | 63° |
| 2026-04-26 17:08 | 38.80795 | 1.21620 | 1991 ft | 163 kts | 63° |
| 2026-04-26 17:08 | 38.81306 | 1.22856 | 1970 ft | 149 kts | 63° |
| 2026-04-26 17:08 | 38.81780 | 1.24005 | 1979 ft | 146 kts | 63° |
| 2026-04-26 17:09 | 38.82247 | 1.25139 | 1957 ft | 142 kts | 63° |
| 2026-04-26 17:09 | 38.82399 | 1.25506 | 1881 ft | 143 kts | 63° |
| 2026-04-26 17:09 | 38.83141 | 1.27299 | 1546 ft | 131 kts | 63° |
| 2026-04-26 17:09 | 38.83563 | 1.28319 | 1374 ft | 131 kts | 63° |
| 2026-04-26 17:10 | 38.83992 | 1.29357 | 1192 ft | 131 kts | 62° |
| 2026-04-26 17:10 | 38.84419 | 1.30390 | 1016 ft | 131 kts | 63° |
| 2026-04-26 17:10 | 38.84849 | 1.31418 | 839 ft | 131 kts | 63° |
| 2026-04-26 17:10 | 38.85143 | 1.32088 | 671 ft | 129 kts | 62° |
| 2026-04-26 17:11 | 38.85589 | 1.33105 | 590 ft | 131 kts | 62° |
| 2026-04-26 17:11 | 38.86000 | 1.34144 | 390 ft | 131 kts | 64° |
| 2026-04-26 17:11 | 38.86412 | 1.35189 | 225 ft | 130 kts | 65° |
| 2026-04-26 17:11 | 38.86828 | 1.36204 | 52 ft | 126 kts | 63° |
| 2026-04-26 17:12 | 38.87426 | 1.37656 | 35 ft | 44 kts | 59° |
| 2026-04-26 17:12 | 38.87572 | 1.37850 | 36 ft | 16 kts | 34° |
| 2026-04-26 17:13 | 38.87594 | 1.37868 | 36 ft | 0 kts | 33° |
| 2026-04-26 17:13 | 38.87603 | 1.37876 | 34 ft | 5 kts | 33° |
| 2026-04-26 17:13 | 38.87684 | 1.37903 | 41 ft | 7 kts | 328° |
| 2026-04-26 17:14 | 38.87692 | 1.37844 | 44 ft | 12 kts | 247° |
| 2026-04-26 17:14 | 38.87590 | 1.37596 | 47 ft | 14 kts | 245° |
| 2026-04-26 17:14 | 38.87601 | 1.37543 | 46 ft | 3 kts | 317° |
| 2026-04-26 17:15 | 38.87700 | 1.37454 | 52 ft | 8 kts | 287° |
| 2026-04-26 17:15 | 38.87686 | 1.37391 | 51 ft | 11 kts | 243° |
| 2026-04-26 17:15 | 38.87647 | 1.37297 | 50 ft | 12 kts | 242° |
| 2026-04-26 17:16 | 38.87607 | 1.37200 | 52 ft | 13 kts | 242° |
| 2026-04-26 17:16 | 38.87578 | 1.37108 | 51 ft | 9 kts | 287° |
| 2026-04-26 17:16 | 38.87609 | 1.37072 | 52 ft | 5 kts | 330° |
| 2026-04-26 17:16 | 38.87624 | 1.37062 | 52 ft | 0 kts | 332° |